createdAt,value
2018-03-22T00:00:55.040Z,2.00
2018-03-22T00:03:23.278Z,2.23
2018-03-22T00:05:51.031Z,1.60
2018-03-22T00:08:18.668Z,1.87
2018-03-22T00:10:46.353Z,2.07
2018-03-22T00:13:13.966Z,1.67
2018-03-22T00:15:41.418Z,1.50
2018-03-22T00:18:08.886Z,1.57
2018-03-22T00:20:36.339Z,1.30
2018-03-22T00:23:03.802Z,1.93
2018-03-22T00:25:31.334Z,1.60
2018-03-22T00:27:58.878Z,1.60
2018-03-22T00:30:26.479Z,1.70
2018-03-22T00:32:53.959Z,1.30
2018-03-22T00:35:21.459Z,1.60
2018-03-22T00:37:49.261Z,1.50
2018-03-22T00:40:16.701Z,1.37
2018-03-22T00:42:44.185Z,1.70
2018-03-22T00:45:11.697Z,1.53
2018-03-22T00:47:39.246Z,1.83
2018-03-22T00:50:08.551Z,1.60
2018-03-22T00:52:36.027Z,1.60
2018-03-22T00:55:04.209Z,1.50
2018-03-22T00:57:31.853Z,1.60
2018-03-22T00:59:59.430Z,1.80
2018-03-22T01:02:27.087Z,1.93
2018-03-22T01:04:54.554Z,1.67
2018-03-22T01:07:22.012Z,1.60
2018-03-22T01:09:49.470Z,1.40
2018-03-22T01:12:16.921Z,1.97
2018-03-22T01:14:44.507Z,1.63
2018-03-22T01:17:12.266Z,1.67
2018-03-22T01:19:39.720Z,1.70
2018-03-22T01:22:07.178Z,1.60
2018-03-22T01:24:34.931Z,1.60
2018-03-22T01:27:02.376Z,1.67
2018-03-22T01:29:30.056Z,1.67
2018-03-22T01:31:57.612Z,1.73
2018-03-22T01:34:25.257Z,1.60
2018-03-22T01:36:52.714Z,1.50
2018-03-22T01:39:20.169Z,1.40
2018-03-22T01:41:47.690Z,1.70
2018-03-22T01:44:15.148Z,1.30
2018-03-22T01:46:42.602Z,1.10
2018-03-22T01:49:10.062Z,1.17
2018-03-22T01:51:37.516Z,1.50
2018-03-22T01:54:04.980Z,1.40
2018-03-22T01:56:32.441Z,1.37
2018-03-22T01:58:59.919Z,1.57
2018-03-22T02:01:27.407Z,1.60
2018-03-22T02:03:55.165Z,1.50
2018-03-22T02:06:22.808Z,1.57
2018-03-22T02:08:50.276Z,1.53
2018-03-22T02:11:17.832Z,1.27
2018-03-22T02:13:45.282Z,1.40
2018-03-22T02:16:12.754Z,1.53
2018-03-22T02:18:40.202Z,1.50
2018-03-22T02:21:07.665Z,1.63
2018-03-22T02:23:35.110Z,1.67
2018-03-22T02:26:02.576Z,1.33
2018-03-22T02:28:30.037Z,1.73
2018-03-22T02:30:57.545Z,1.40
2018-03-22T02:33:25.006Z,1.43
2018-03-22T02:35:52.461Z,1.53
2018-03-22T02:38:20.074Z,1.40
2018-03-22T02:40:47.526Z,1.83
2018-03-22T02:43:14.975Z,1.20
2018-03-22T02:45:42.451Z,1.60
2018-03-22T02:48:09.921Z,1.40
2018-03-22T02:50:37.485Z,1.40
2018-03-22T02:53:05.029Z,1.50
2018-03-22T02:55:32.628Z,1.40
2018-03-22T02:58:00.081Z,1.30
2018-03-22T03:00:27.584Z,1.13
2018-03-22T03:02:55.002Z,1.30
2018-03-22T03:05:22.562Z,1.50
2018-03-22T03:07:50.168Z,1.20
2018-03-22T03:10:17.626Z,1.37
2018-03-22T03:12:45.238Z,1.53
2018-03-22T03:15:12.875Z,1.20
2018-03-22T03:17:40.765Z,1.63
2018-03-22T03:20:08.398Z,1.40
2018-03-22T03:22:35.982Z,1.40
2018-03-22T03:25:03.540Z,1.43
2018-03-22T03:27:31.384Z,1.70
2018-03-22T03:29:58.868Z,1.50
2018-03-22T03:32:26.351Z,1.53
2018-03-22T03:34:53.818Z,1.37
2018-03-22T03:37:21.303Z,1.23
2018-03-22T03:39:48.777Z,1.40
2018-03-22T03:42:16.258Z,1.47
2018-03-22T03:44:43.711Z,1.47
2018-03-22T03:47:11.361Z,1.20
2018-03-22T03:49:38.807Z,1.63
2018-03-22T03:52:06.262Z,1.47
2018-03-22T03:54:33.713Z,1.57
2018-03-22T03:57:01.315Z,1.37
2018-03-22T03:59:28.762Z,1.30
2018-03-22T04:01:56.526Z,1.53
2018-03-22T04:04:24.797Z,1.30
2018-03-22T04:06:52.256Z,1.20
2018-03-22T04:09:19.840Z,1.50
2018-03-22T04:11:47.429Z,1.30
2018-03-22T04:14:15.678Z,1.73
2018-03-22T04:16:43.352Z,1.73
2018-03-22T04:19:10.798Z,1.17
2018-03-22T04:21:38.269Z,1.60
2018-03-22T04:24:05.725Z,1.40
2018-03-22T04:26:33.194Z,1.63
2018-03-22T04:29:00.726Z,1.37
2018-03-22T04:31:28.181Z,1.40
2018-03-22T04:33:55.952Z,1.33
2018-03-22T04:36:23.710Z,1.83
2018-03-22T04:38:51.475Z,1.40
2018-03-22T04:41:18.943Z,1.57
2018-03-22T04:43:46.589Z,1.10
2018-03-22T04:46:14.190Z,1.40
2018-03-22T04:48:41.809Z,1.57
2018-03-22T04:51:09.277Z,1.30
2018-03-22T04:53:36.802Z,1.57
2018-03-22T04:56:04.253Z,1.33
2018-03-22T04:58:31.716Z,1.40
2018-03-22T05:00:59.156Z,1.50
2018-03-22T05:03:26.609Z,1.77
2018-03-22T05:05:54.165Z,1.30
2018-03-22T05:08:21.816Z,1.23
2018-03-22T05:10:49.262Z,1.70
2018-03-22T05:13:16.822Z,1.20
2018-03-22T05:15:44.454Z,1.30
2018-03-22T05:18:11.942Z,1.47
2018-03-22T05:20:39.392Z,1.43
2018-03-22T05:23:06.862Z,1.47
2018-03-22T05:25:34.314Z,1.30
2018-03-22T05:28:02.697Z,1.40
2018-03-22T05:30:30.162Z,1.67
2018-03-22T05:32:57.618Z,1.60
2018-03-22T05:35:25.157Z,3.03
2018-03-22T05:37:54.279Z,3.83
2018-03-22T05:40:22.097Z,4.53
2018-03-22T05:42:50.452Z,4.77
2018-03-22T05:48:10.823Z,5.20
2018-03-22T05:50:38.480Z,5.20
2018-03-22T05:53:06.037Z,5.40
2018-03-22T05:55:34.522Z,5.00
2018-03-22T05:58:01.974Z,4.70
2018-03-22T06:00:29.433Z,5.00
2018-03-22T06:02:56.888Z,5.20
2018-03-22T06:05:24.449Z,5.47
2018-03-22T06:07:52.091Z,4.60
2018-03-22T06:10:19.557Z,4.90
2018-03-22T06:12:47.005Z,4.80
2018-03-22T06:15:14.474Z,5.80
2018-03-22T06:17:41.931Z,4.27
2018-03-22T06:20:09.505Z,4.10
2018-03-22T06:22:37.137Z,3.10
2018-03-22T06:25:04.593Z,3.37
2018-03-22T06:27:32.051Z,3.30
2018-03-22T06:29:59.554Z,3.10
2018-03-22T06:32:27.015Z,2.63
2018-03-22T06:34:54.549Z,2.90
2018-03-22T06:37:22.003Z,2.30
2018-03-22T06:39:49.475Z,3.00
2018-03-22T06:42:17.116Z,3.00
2018-03-22T06:44:44.697Z,4.07
2018-03-22T06:47:12.342Z,3.70
2018-03-22T06:49:39.826Z,3.60
2018-03-22T06:52:07.270Z,3.23
2018-03-22T06:54:34.781Z,3.60
2018-03-22T06:57:02.268Z,4.10
2018-03-22T06:59:29.718Z,2.90
2018-03-22T07:01:57.209Z,3.03
2018-03-22T07:04:24.711Z,2.70
2018-03-22T07:06:52.295Z,3.27
2018-03-22T07:09:19.718Z,2.57
2018-03-22T07:11:47.981Z,3.20
2018-03-22T07:14:15.766Z,3.07
2018-03-22T07:16:43.213Z,2.93
2018-03-22T07:19:10.814Z,2.87
2018-03-22T07:21:38.294Z,2.60
2018-03-22T07:24:05.897Z,2.53
2018-03-22T07:26:33.350Z,2.67
2018-03-22T07:29:00.954Z,2.83
2018-03-22T07:31:28.410Z,2.60
2018-03-22T07:33:55.886Z,2.40
2018-03-22T07:36:23.477Z,2.30
2018-03-22T07:38:51.229Z,2.33
2018-03-22T07:41:18.869Z,2.70
2018-03-22T07:43:46.316Z,2.70
2018-03-22T07:46:13.782Z,2.60
2018-03-22T07:48:41.232Z,2.30
2018-03-22T07:51:08.691Z,2.47
2018-03-22T07:53:36.155Z,2.30
2018-03-22T07:56:03.840Z,2.43
2018-03-22T07:58:31.602Z,2.33
2018-03-22T08:00:59.173Z,2.10
2018-03-22T08:03:26.632Z,2.33
2018-03-22T08:05:54.156Z,2.60
2018-03-22T08:08:21.641Z,2.20
2018-03-22T08:10:49.276Z,2.20
2018-03-22T08:13:16.748Z,2.13
2018-03-22T08:15:44.325Z,2.37
2018-03-22T08:18:11.898Z,2.40
2018-03-22T08:20:39.557Z,2.50
2018-03-22T08:23:07.010Z,2.20
2018-03-22T08:25:34.504Z,2.20
2018-03-22T08:28:02.109Z,2.20
2018-03-22T08:30:29.622Z,2.47
2018-03-22T08:32:57.151Z,2.37
2018-03-22T08:35:24.629Z,2.47
2018-03-22T08:37:52.093Z,2.40
2018-03-22T08:40:19.541Z,2.20
2018-03-22T08:42:47.005Z,1.90
2018-03-22T08:45:14.629Z,1.97
2018-03-22T08:47:42.110Z,2.30
2018-03-22T08:50:09.572Z,2.30
2018-03-22T08:52:37.030Z,2.47
2018-03-22T08:55:04.586Z,1.90
2018-03-22T08:57:32.230Z,2.13
2018-03-22T08:59:59.682Z,2.13
2018-03-22T09:02:27.358Z,2.50
2018-03-22T09:04:54.821Z,2.07
2018-03-22T09:07:22.275Z,2.10
2018-03-22T09:09:49.811Z,2.27
2018-03-22T09:12:17.315Z,2.20
2018-03-22T09:14:44.857Z,2.27
2018-03-22T09:17:12.505Z,1.97
2018-03-22T09:19:40.089Z,2.03
2018-03-22T09:22:07.725Z,2.20
2018-03-22T09:24:35.185Z,2.43
2018-03-22T09:27:05.434Z,2.27
2018-03-22T09:29:32.917Z,2.27
2018-03-22T09:32:00.376Z,2.20
2018-03-22T09:34:27.831Z,1.90
2018-03-22T09:36:55.293Z,1.87
2018-03-22T09:39:22.814Z,2.33
2018-03-22T09:41:50.388Z,1.97
2018-03-22T09:44:18.038Z,1.90
2018-03-22T09:46:45.501Z,2.10
2018-03-22T09:49:13.008Z,2.17
2018-03-22T09:51:40.721Z,2.00
2018-03-22T09:54:08.197Z,2.00
2018-03-22T09:56:35.677Z,2.20
2018-03-22T09:59:03.392Z,1.70
2018-03-22T10:01:31.025Z,1.90
2018-03-22T10:03:58.612Z,2.00
2018-03-22T10:06:26.077Z,2.00
2018-03-22T10:08:53.546Z,1.80
2018-03-22T10:11:20.993Z,2.20
2018-03-22T10:13:48.650Z,2.07
2018-03-22T10:16:16.113Z,1.97
2018-03-22T10:18:43.573Z,1.90
2018-03-22T10:21:11.023Z,1.80
2018-03-22T10:23:38.586Z,1.90
2018-03-22T10:26:06.246Z,1.80
2018-03-22T10:28:33.701Z,1.83
2018-03-22T10:31:01.261Z,1.73
2018-03-22T10:33:29.026Z,1.60
2018-03-22T10:35:56.543Z,1.90
2018-03-22T10:38:23.957Z,1.97
2018-03-22T10:40:51.705Z,1.50
2018-03-22T10:43:19.177Z,1.87
2018-03-22T10:45:46.905Z,1.97
2018-03-22T10:48:14.381Z,1.80
2018-03-22T10:50:41.833Z,1.47
2018-03-22T10:53:09.298Z,2.00
2018-03-22T10:55:36.939Z,1.70
2018-03-22T10:58:04.414Z,2.17
2018-03-22T11:00:37.729Z,1.70
2018-03-22T11:03:10.870Z,1.90
2018-03-22T11:05:38.597Z,1.90
2018-03-22T11:08:06.103Z,1.80
2018-03-22T11:10:33.858Z,1.90
2018-03-22T11:13:01.465Z,1.80
2018-03-22T11:15:28.913Z,1.60
2018-03-22T11:17:56.378Z,1.77
2018-03-22T11:20:23.858Z,1.93
2018-03-22T11:22:51.313Z,1.70
2018-03-22T11:25:18.769Z,2.03
2018-03-22T11:27:46.220Z,1.63
2018-03-22T11:30:13.697Z,2.10
2018-03-22T11:32:41.162Z,1.60
2018-03-22T11:35:08.703Z,1.77
2018-03-22T11:37:36.826Z,1.60
2018-03-22T11:40:04.552Z,1.43
2018-03-22T11:42:32.307Z,1.83
2018-03-22T11:45:00.098Z,1.87
2018-03-22T11:47:27.926Z,1.77
2018-03-22T11:49:55.473Z,1.70
2018-03-22T11:52:22.956Z,1.47
2018-03-22T11:54:50.425Z,1.70
2018-03-22T11:57:17.873Z,1.87
2018-03-22T11:59:45.421Z,1.50
2018-03-22T12:02:13.194Z,1.80
2018-03-22T12:04:40.799Z,1.60
2018-03-22T12:07:08.225Z,1.90
2018-03-22T12:09:35.868Z,1.80
2018-03-22T12:12:03.333Z,1.30
2018-03-22T12:14:30.798Z,1.50
2018-03-22T12:16:58.477Z,1.67
2018-03-22T12:19:25.975Z,1.80
2018-03-22T12:21:53.430Z,1.60
2018-03-22T12:24:20.880Z,1.60
2018-03-22T12:26:48.332Z,1.50
2018-03-22T12:29:15.843Z,1.50
2018-03-22T12:31:43.310Z,1.67
2018-03-22T12:34:10.760Z,1.70
2018-03-22T12:36:38.401Z,1.57
2018-03-22T12:39:05.915Z,1.97
2018-03-22T12:41:33.373Z,2.00
2018-03-22T12:44:00.821Z,1.93
2018-03-22T12:46:28.353Z,1.97
2018-03-22T12:48:55.805Z,1.70
2018-03-22T12:51:23.260Z,2.23
2018-03-22T12:53:50.721Z,1.90
2018-03-22T12:56:18.498Z,1.77
2018-03-22T12:58:46.145Z,1.47
2018-03-22T13:01:13.624Z,2.23
2018-03-22T13:03:41.086Z,1.70
2018-03-22T13:06:08.566Z,1.70
2018-03-22T13:08:36.016Z,1.60
2018-03-22T13:11:03.478Z,1.67
2018-03-22T13:13:31.005Z,1.70
2018-03-22T13:16:00.020Z,1.57
2018-03-22T13:18:27.654Z,1.60
2018-03-22T13:20:55.145Z,2.10
2018-03-22T13:23:22.607Z,1.97
2018-03-22T13:25:50.073Z,1.90
2018-03-22T13:28:17.611Z,1.70
2018-03-22T13:30:45.276Z,2.03
2018-03-22T13:33:12.838Z,2.10
2018-03-22T13:35:40.622Z,2.17
2018-03-22T13:38:08.069Z,2.10
2018-03-22T13:40:35.527Z,2.70
2018-03-22T13:43:03.202Z,2.87
2018-03-22T13:45:30.739Z,2.10
2018-03-22T13:47:58.191Z,1.97
2018-03-22T13:50:25.642Z,1.70
2018-03-22T13:52:53.099Z,1.87
2018-03-22T13:55:20.553Z,1.50
2018-03-22T13:57:48.012Z,1.93
2018-03-22T14:00:15.533Z,2.00
2018-03-22T14:02:43.110Z,2.40
2018-03-22T14:05:10.578Z,1.40
2018-03-22T14:07:38.145Z,1.73
2018-03-22T14:10:05.606Z,2.20
2018-03-22T14:12:33.258Z,2.20
2018-03-22T14:15:00.830Z,1.83
2018-03-22T14:17:28.296Z,2.23
2018-03-22T14:19:55.941Z,2.43
2018-03-22T14:22:23.413Z,2.10
2018-03-22T14:24:50.868Z,2.10
2018-03-22T14:27:18.412Z,2.57
2018-03-22T14:29:46.066Z,2.47
2018-03-22T14:32:13.650Z,2.47
2018-03-22T14:34:41.099Z,2.07
2018-03-22T14:37:08.565Z,2.30
2018-03-22T14:39:36.206Z,2.17
2018-03-22T14:42:03.657Z,2.27
2018-03-22T14:44:31.125Z,2.07
2018-03-22T14:46:58.709Z,1.90
2018-03-22T14:49:26.350Z,1.90
2018-03-22T14:51:53.925Z,2.10
2018-03-22T14:54:21.389Z,1.87
2018-03-22T14:56:48.844Z,1.73
2018-03-22T14:59:16.485Z,2.07
2018-03-22T15:01:43.946Z,1.80
2018-03-22T15:04:11.397Z,2.20
2018-03-22T15:06:38.929Z,2.00
2018-03-22T15:09:07.052Z,2.03
2018-03-22T15:11:34.528Z,2.07
2018-03-22T15:14:02.282Z,2.10
2018-03-22T15:16:29.732Z,1.80
2018-03-22T15:18:57.208Z,2.60
2018-03-22T15:21:25.061Z,2.37
2018-03-22T15:23:52.632Z,1.97
2018-03-22T15:26:20.097Z,2.27
2018-03-22T15:28:47.634Z,2.77
2018-03-22T15:31:15.080Z,2.00
2018-03-22T15:33:42.541Z,2.33
2018-03-22T15:36:10.195Z,2.20
2018-03-22T15:38:38.524Z,2.20
2018-03-22T15:41:06.782Z,2.00
2018-03-22T15:43:34.237Z,2.07
2018-03-22T15:46:01.877Z,2.57
2018-03-22T15:48:29.381Z,2.07
2018-03-22T15:50:56.928Z,2.10
2018-03-22T15:53:24.544Z,2.13
2018-03-22T15:55:52.001Z,2.70
2018-03-22T15:58:19.511Z,2.50
2018-03-22T16:00:46.966Z,2.07
2018-03-22T16:03:14.676Z,2.33
2018-03-22T16:05:42.132Z,2.50
2018-03-22T16:08:09.576Z,2.50
2018-03-22T16:10:37.209Z,2.20
2018-03-22T16:13:05.538Z,2.63
2018-03-22T16:15:32.993Z,2.30
2018-03-22T16:18:00.441Z,2.77
2018-03-22T16:20:27.918Z,2.10
2018-03-22T16:22:55.360Z,2.70
2018-03-22T16:25:22.821Z,2.17
2018-03-22T16:27:50.281Z,2.37
2018-03-22T16:30:17.771Z,2.20
2018-03-22T16:32:45.228Z,2.43
2018-03-22T16:35:13.023Z,2.17
2018-03-22T16:37:40.469Z,2.37
2018-03-22T16:40:08.154Z,2.23
2018-03-22T16:42:35.738Z,2.17
2018-03-22T16:45:03.453Z,2.10
2018-03-22T16:47:31.095Z,2.03
2018-03-22T16:49:58.570Z,2.40
2018-03-22T16:52:26.132Z,2.43
2018-03-22T16:54:53.614Z,2.47
2018-03-22T16:57:21.089Z,2.33
2018-03-22T16:59:48.782Z,1.80
2018-03-22T17:02:16.442Z,2.23
2018-03-22T17:04:43.957Z,2.20
2018-03-22T17:07:12.343Z,2.10
2018-03-22T17:09:39.793Z,1.90
2018-03-22T17:12:07.260Z,2.17
2018-03-22T17:14:34.793Z,2.10
2018-03-22T17:17:04.035Z,1.80
2018-03-22T17:19:31.486Z,2.13
2018-03-22T17:21:59.010Z,1.97
2018-03-22T17:24:26.806Z,2.20
2018-03-22T17:26:54.398Z,1.93
2018-03-22T17:29:21.953Z,1.80
2018-03-22T17:31:49.449Z,2.03
2018-03-22T17:34:17.223Z,1.87
2018-03-22T17:36:44.872Z,1.63
2018-03-22T17:39:12.332Z,2.03
2018-03-22T17:41:39.806Z,1.97
2018-03-22T17:44:08.180Z,2.20
2018-03-22T17:46:35.634Z,1.80
2018-03-22T17:49:03.098Z,2.20
2018-03-22T17:51:30.554Z,1.90
2018-03-22T17:53:58.078Z,2.37
2018-03-22T17:56:25.549Z,1.63
2018-03-22T17:58:53.013Z,2.00
2018-03-22T18:01:20.664Z,2.33
2018-03-22T18:03:49.862Z,2.27
2018-03-22T18:06:17.557Z,2.17
2018-03-22T18:08:48.249Z,2.20
2018-03-22T18:11:15.734Z,1.80
2018-03-22T18:13:43.196Z,2.10
2018-03-22T18:16:10.978Z,2.07
2018-03-22T18:18:38.589Z,1.87
2018-03-22T18:21:07.010Z,2.30
2018-03-22T18:23:34.605Z,2.20
2018-03-22T18:26:02.130Z,1.70
2018-03-22T18:28:29.590Z,1.53
2018-03-22T18:30:57.052Z,1.90
2018-03-22T18:33:24.690Z,1.57
2018-03-22T18:35:52.145Z,1.60
2018-03-22T18:38:19.610Z,1.70
2018-03-22T18:40:47.049Z,1.70
2018-03-22T18:43:14.564Z,1.93
2018-03-22T18:45:42.110Z,1.90
2018-03-22T18:48:09.874Z,1.90
2018-03-22T18:50:37.321Z,1.77
2018-03-22T18:53:04.964Z,1.67
2018-03-22T18:55:32.462Z,1.83
2018-03-22T18:57:59.868Z,1.60
2018-03-22T19:00:27.462Z,1.77
2018-03-22T19:02:55.113Z,2.10
2018-03-22T19:05:23.013Z,1.70
2018-03-22T19:07:50.474Z,1.43
2018-03-22T19:10:18.135Z,1.70
2018-03-22T19:12:45.597Z,1.40
2018-03-22T19:15:13.053Z,1.37
2018-03-22T19:17:41.356Z,1.90
2018-03-22T19:20:08.812Z,1.67
2018-03-22T19:22:36.494Z,1.50
2018-03-22T19:25:03.952Z,1.90
2018-03-22T19:27:31.559Z,1.43
2018-03-22T19:29:59.018Z,1.73
2018-03-22T19:32:26.567Z,1.40
2018-03-22T19:34:54.205Z,1.37
2018-03-22T19:37:21.657Z,1.67
2018-03-22T19:39:49.198Z,1.40
2018-03-22T19:42:16.714Z,1.60
2018-03-22T19:44:44.501Z,1.50
2018-03-22T19:47:12.237Z,1.50
2018-03-22T19:49:39.698Z,1.37
2018-03-22T19:52:07.458Z,1.37
2018-03-22T19:54:35.239Z,1.50
2018-03-22T19:57:02.712Z,1.17
2018-03-22T19:59:30.454Z,1.50
2018-03-22T20:01:58.084Z,1.43
2018-03-22T20:04:25.565Z,1.67
2018-03-22T20:06:53.035Z,1.77
2018-03-22T20:09:20.514Z,1.70
2018-03-22T20:11:48.057Z,1.30
2018-03-22T20:14:15.534Z,1.60
2018-03-22T20:16:43.187Z,1.43
2018-03-22T20:19:10.730Z,1.80
2018-03-22T20:21:38.377Z,1.50
2018-03-22T20:24:05.834Z,1.23
2018-03-22T20:26:33.350Z,1.43
2018-03-22T20:29:00.807Z,1.40
2018-03-22T20:31:38.158Z,1.53
2018-03-22T20:34:05.622Z,1.40
2018-03-22T20:36:33.152Z,1.60
2018-03-22T20:39:00.606Z,1.33
2018-03-22T20:41:28.221Z,1.80
2018-03-22T20:43:55.757Z,1.70
2018-03-22T20:46:23.405Z,1.43
2018-03-22T20:48:50.885Z,1.67
2018-03-22T20:51:18.353Z,1.83
2018-03-22T20:53:45.795Z,1.83
2018-03-22T20:56:13.273Z,1.80
2018-03-22T20:58:40.718Z,1.90
2018-03-22T21:01:08.192Z,1.67
2018-03-22T21:03:35.687Z,2.00
2018-03-22T21:06:03.094Z,2.10
2018-03-22T21:08:30.565Z,2.13
2018-03-22T21:10:58.106Z,1.83
2018-03-22T21:13:25.574Z,1.73
2018-03-22T21:15:53.020Z,1.73
2018-03-22T21:18:20.671Z,1.87
2018-03-22T21:20:48.238Z,1.77
2018-03-22T21:23:15.673Z,1.73
2018-03-22T21:25:43.126Z,1.70
2018-03-22T21:28:10.601Z,1.90
2018-03-22T21:30:38.273Z,2.03
2018-03-22T21:33:05.749Z,2.30
2018-03-22T21:35:34.131Z,1.77
2018-03-22T21:38:01.584Z,1.90
2018-03-22T21:40:29.041Z,1.53
2018-03-22T21:42:56.496Z,1.93
2018-03-22T21:45:24.658Z,2.10
2018-03-22T21:47:53.228Z,1.70
2018-03-22T21:50:20.928Z,1.43
2018-03-22T21:52:48.765Z,1.60
2018-03-22T21:55:16.364Z,1.40
2018-03-22T21:57:43.936Z,1.53
2018-03-22T22:00:11.538Z,1.97
2018-03-22T22:02:39.375Z,1.40
2018-03-22T22:05:19.902Z,2.00
2018-03-22T22:07:47.528Z,2.40
2018-03-22T22:10:44.216Z,1.67
2018-03-22T22:13:12.445Z,1.80
2018-03-22T22:15:40.045Z,2.10
2018-03-22T22:18:08.315Z,1.73
2018-03-22T22:20:36.814Z,1.80
2018-03-22T22:23:05.167Z,2.33
2018-03-22T22:25:32.772Z,2.33
2018-03-22T22:28:00.342Z,1.97
2018-03-22T22:30:27.836Z,1.70
2018-03-22T22:32:55.300Z,1.70
2018-03-22T22:35:22.838Z,1.93
2018-03-22T22:37:50.322Z,2.00
2018-03-22T22:40:17.824Z,2.03
2018-03-22T22:42:45.301Z,1.70
2018-03-22T22:45:12.834Z,1.77
2018-03-22T22:47:40.834Z,1.80
2018-03-22T22:50:08.339Z,1.60
2018-03-22T22:52:35.788Z,1.60
2018-03-22T22:55:03.308Z,1.77
2018-03-22T22:57:30.827Z,1.97
2018-03-22T22:59:58.504Z,1.67
2018-03-22T23:02:26.053Z,1.67
2018-03-22T23:04:55.819Z,1.73
2018-03-22T23:07:23.932Z,2.30
2018-03-22T23:09:51.393Z,1.70
2018-03-22T23:12:19.050Z,2.00
2018-03-22T23:14:46.609Z,1.70
2018-03-22T23:17:14.097Z,1.50
2018-03-22T23:19:41.590Z,1.73
2018-03-22T23:22:09.152Z,1.90
2018-03-22T23:24:36.708Z,1.40
2018-03-22T23:27:04.158Z,1.60
2018-03-22T23:29:31.662Z,1.53
2018-03-22T23:31:59.164Z,1.10
2018-03-22T23:34:26.621Z,1.90
2018-03-22T23:36:54.222Z,1.30
2018-03-22T23:39:21.836Z,1.90
2018-03-22T23:41:49.285Z,1.50
2018-03-22T23:44:16.736Z,1.57
2018-03-22T23:46:44.497Z,1.47
2018-03-22T23:49:12.124Z,1.57
2018-03-22T23:51:39.745Z,1.87
2018-03-22T23:54:07.369Z,1.27
2018-03-22T23:56:34.887Z,1.37
2018-03-22T23:59:02.287Z,1.80
